PWSweather.com
Personal Weather Stations
Station Observations
KTXPLANO70
Kemper Estates, Plano, TX

Kemper EstatesPlano, TX

Lat: 33.0674, Lon: -96.7659

Elevation: 737

Station Type: Davis Vantage Pro2

http://www.dallasdawg.com

Latest ConditionsUpdated 5:30:03 AM CDT Monday, Aug 26, 2019
Currently Today's Max Today's Min Today's Average
Temperature 80.3°F26.8°C 86.3°F30.2°C 80.3°F26.8°C 83.3°F28.5°C
Dew Point 75.0°F23.9°C 75.2°F24.0°C 74.1°F23.4°C 74.9°F23.8°C
Winds 4.6 mph S7.4 kmh S 5.8 mph -9.3 kmh - - 3.7 mph 6.0 kmh
Wind Gusts 8.1 mph13.0 kmh 12.7 mph20.4 kmh - -
Humidity 84% 84% 68% 76%
Pressure 29.73 in1006.8 mb 29.75 in1007.5 mb 29.73 in1006.8 mb -
Hour Temp Dew Point Humidity Winds Wind Gusts Pressure Precip Precip Rate Daily Precip Total
05:30 AM 80.3°F26.8°C 75.0°F23.9°C 84% 4.6 mph S7.4 kmh S 8.1 mph13.0 kmh 29.73 in1006.8 mb - 0.00 in0.0 mm 0.00 in0.0 mm
05:25 AM 80.4°F26.9°C 75.1°F23.9°C 84% 3.5 mph SSE5.6 kmh SSE 4.6 mph7.4 kmh 29.73 in1006.8 mb - 0.00 in0.0 mm 0.00 in0.0 mm
05:20 AM 80.4°F26.9°C 75.1°F23.9°C 84% 4.6 mph SE7.4 kmh SE 9.2 mph14.8 kmh 29.73 in1006.8 mb - 0.00 in0.0 mm 0.00 in0.0 mm
05:15 AM 80.5°F26.9°C 75.2°F24.0°C 84% 4.6 mph SE7.4 kmh SE 5.8 mph9.3 kmh 29.73 in1006.8 mb - 0.00 in0.0 mm 0.00 in0.0 mm
05:10 AM 80.6°F27.0°C 75.0°F23.9°C 83% 3.5 mph SE5.6 kmh SE 5.8 mph9.3 kmh 29.73 in1006.8 mb - 0.00 in0.0 mm 0.00 in0.0 mm
05:00 AM 80.8°F27.1°C 75.2°F24.0°C 83% 3.5 mph SE5.6 kmh SE 4.6 mph7.4 kmh 29.73 in1006.8 mb - 0.00 in0.0 mm 0.00 in0.0 mm
04:55 AM 80.9°F27.2°C 75.2°F24.0°C 83% 4.6 mph SE7.4 kmh SE 6.9 mph11.1 kmh 29.73 in1006.8 mb - 0.00 in0.0 mm 0.00 in0.0 mm
04:50 AM 80.9°F27.2°C 74.9°F23.8°C 82% 4.6 mph SSE7.4 kmh SSE 5.8 mph9.3 kmh 29.73 in1006.8 mb - 0.00 in0.0 mm 0.00 in0.0 mm
04:45 AM 81.1°F27.3°C 75.1°F23.9°C 82% 3.5 mph SSE5.6 kmh SSE 6.9 mph11.1 kmh 29.73 in1006.8 mb - 0.00 in0.0 mm 0.00 in0.0 mm
04:40 AM 81.2°F27.3°C 75.2°F24.0°C 82% 2.3 mph SE3.7 kmh SE 4.6 mph7.4 kmh 29.73 in1006.8 mb - 0.00 in0.0 mm 0.00 in0.0 mm
04:35 AM 81.2°F27.3°C 75.2°F24.0°C 82% 4.6 mph SSE7.4 kmh SSE 10.4 mph16.7 kmh 29.73 in1006.8 mb - 0.00 in0.0 mm 0.00 in0.0 mm
04:30 AM 81.3°F27.4°C 74.9°F23.8°C 81% 2.3 mph SE3.7 kmh SE 4.6 mph7.4 kmh 29.73 in1006.8 mb - 0.00 in0.0 mm 0.00 in0.0 mm
04:25 AM 81.4°F27.4°C 75.0°F23.9°C 81% 3.5 mph SE5.6 kmh SE 4.6 mph7.4 kmh 29.73 in1006.8 mb - 0.00 in0.0 mm 0.00 in0.0 mm
04:20 AM 81.5°F27.5°C 75.1°F23.9°C 81% 3.5 mph SE5.6 kmh SE 5.8 mph9.3 kmh 29.73 in1006.8 mb - 0.00 in0.0 mm 0.00 in0.0 mm
04:15 AM 81.6°F27.6°C 75.2°F24.0°C 81% 3.5 mph SSE5.6 kmh SSE 6.9 mph11.1 kmh 29.73 in1006.8 mb - 0.00 in0.0 mm 0.00 in0.0 mm
04:10 AM 81.6°F27.6°C 75.2°F24.0°C 81% 3.5 mph SE5.6 kmh SE 8.1 mph13.0 kmh 29.73 in1006.8 mb - 0.00 in0.0 mm 0.00 in0.0 mm
04:00 AM 81.8°F27.7°C 75.0°F23.9°C 80% 4.6 mph SSE7.4 kmh SSE 5.8 mph9.3 kmh 29.73 in1006.8 mb - 0.00 in0.0 mm 0.00 in0.0 mm
03:55 AM 82.0°F27.8°C 75.2°F24.0°C 80% 3.5 mph SE5.6 kmh SE 4.6 mph7.4 kmh 29.73 in1006.8 mb - 0.00 in0.0 mm 0.00 in0.0 mm
03:50 AM 82.0°F27.8°C 74.8°F23.8°C 79% 3.5 mph SE5.6 kmh SE 4.6 mph7.4 kmh 29.73 in1006.8 mb - 0.00 in0.0 mm 0.00 in0.0 mm
03:45 AM 82.0°F27.8°C 74.9°F23.8°C 79% 4.6 mph SSE7.4 kmh SSE 5.8 mph9.3 kmh 29.73 in1006.8 mb - 0.00 in0.0 mm 0.00 in0.0 mm
03:40 AM 82.2°F27.9°C 75.0°F23.9°C 79% 3.5 mph SE5.6 kmh SE 6.9 mph11.1 kmh 29.73 in1006.8 mb - 0.00 in0.0 mm 0.00 in0.0 mm
03:35 AM 82.3°F27.9°C 75.1°F23.9°C 79% 4.6 mph SE7.4 kmh SE 6.9 mph11.1 kmh 29.73 in1006.8 mb - 0.00 in0.0 mm 0.00 in0.0 mm
03:30 AM 82.4°F28.0°C 75.2°F24.0°C 79% 3.5 mph SE5.6 kmh SE 4.6 mph7.4 kmh 29.73 in1006.8 mb - 0.00 in0.0 mm 0.00 in0.0 mm
03:25 AM 82.4°F28.0°C 74.8°F23.8°C 78% 2.3 mph SE3.7 kmh SE 5.8 mph9.3 kmh 29.73 in1006.8 mb - 0.00 in0.0 mm 0.00 in0.0 mm
03:20 AM 82.5°F28.1°C 74.9°F23.8°C 78% 3.5 mph SE5.6 kmh SE 4.6 mph7.4 kmh 29.73 in1006.8 mb - 0.00 in0.0 mm 0.00 in0.0 mm
03:15 AM 82.6°F28.1°C 75.0°F23.9°C 78% 3.5 mph SE5.6 kmh SE 4.6 mph7.4 kmh 29.73 in1006.8 mb - 0.00 in0.0 mm 0.00 in0.0 mm
03:10 AM 82.7°F28.2°C 75.2°F24.0°C 78% 3.5 mph SE5.6 kmh SE 6.9 mph11.1 kmh 29.73 in1006.8 mb - 0.00 in0.0 mm 0.00 in0.0 mm
03:00 AM 82.8°F28.2°C 74.8°F23.8°C 77% 3.5 mph SE5.6 kmh SE 8.1 mph13.0 kmh 29.73 in1006.8 mb - 0.00 in0.0 mm 0.00 in0.0 mm
02:55 AM 83.0°F28.3°C 75.0°F23.9°C 77% 2.3 mph SE3.7 kmh SE 5.8 mph9.3 kmh 29.73 in1006.8 mb - 0.00 in0.0 mm 0.00 in0.0 mm
02:50 AM 83.2°F28.4°C 74.8°F23.8°C 76% 2.3 mph SE3.7 kmh SE 4.6 mph7.4 kmh 29.73 in1006.8 mb - 0.00 in0.0 mm 0.00 in0.0 mm
02:45 AM 83.2°F28.4°C 74.8°F23.8°C 76% 5.8 mph SE9.3 kmh SE 8.1 mph13.0 kmh 29.73 in1006.8 mb - 0.00 in0.0 mm 0.00 in0.0 mm
02:40 AM 83.3°F28.5°C 74.9°F23.8°C 76% 3.5 mph SE5.6 kmh SE 6.9 mph11.1 kmh 29.73 in1006.8 mb - 0.00 in0.0 mm 0.00 in0.0 mm
02:35 AM 83.4°F28.6°C 75.0°F23.9°C 76% 2.3 mph SE3.7 kmh SE 6.9 mph11.1 kmh 29.73 in1006.8 mb - 0.00 in0.0 mm 0.00 in0.0 mm
02:30 AM 83.5°F28.6°C 75.1°F23.9°C 76% 4.6 mph SE7.4 kmh SE 5.8 mph9.3 kmh 29.73 in1006.8 mb - 0.00 in0.0 mm 0.00 in0.0 mm
02:25 AM 83.7°F28.7°C 74.9°F23.8°C 75% 3.5 mph SSE5.6 kmh SSE 9.2 mph14.8 kmh 29.73 in1006.8 mb - 0.00 in0.0 mm 0.00 in0.0 mm
02:20 AM 83.7°F28.7°C 74.9°F23.8°C 75% 4.6 mph SE7.4 kmh SE 10.4 mph16.7 kmh 29.73 in1006.8 mb - 0.00 in0.0 mm 0.00 in0.0 mm
02:15 AM 83.8°F28.8°C 75.0°F23.9°C 75% 4.6 mph SE7.4 kmh SE 6.9 mph11.1 kmh 29.73 in1006.8 mb - 0.00 in0.0 mm 0.00 in0.0 mm
02:10 AM 83.9°F28.8°C 74.7°F23.7°C 74% 4.6 mph SE7.4 kmh SE 8.1 mph13.0 kmh 29.73 in1006.8 mb - 0.00 in0.0 mm 0.00 in0.0 mm
02:00 AM 84.3°F29.1°C 75.1°F23.9°C 74% 3.5 mph SE5.6 kmh SE 4.6 mph7.4 kmh 29.73 in1006.8 mb - 0.00 in0.0 mm 0.00 in0.0 mm
01:55 AM 84.4°F29.1°C 74.8°F23.8°C 73% 3.5 mph SE5.6 kmh SE 4.6 mph7.4 kmh 29.73 in1006.8 mb - 0.00 in0.0 mm 0.00 in0.0 mm
01:50 AM 84.5°F29.2°C 74.9°F23.8°C 73% 5.8 mph SSE9.3 kmh SSE 6.9 mph11.1 kmh 29.73 in1006.8 mb - 0.00 in0.0 mm 0.00 in0.0 mm
01:45 AM 84.6°F29.2°C 75.0°F23.9°C 73% 2.3 mph SE3.7 kmh SE 2.3 mph3.7 kmh 29.73 in1006.8 mb - 0.00 in0.0 mm 0.00 in0.0 mm
01:40 AM 84.7°F29.3°C 74.7°F23.7°C 72% 2.3 mph SE3.7 kmh SE 5.8 mph9.3 kmh 29.73 in1006.8 mb - 0.00 in0.0 mm 0.00 in0.0 mm
01:35 AM 84.8°F29.3°C 74.7°F23.7°C 72% 4.6 mph SE7.4 kmh SE 6.9 mph11.1 kmh 29.74 in1007.1 mb - 0.00 in0.0 mm 0.00 in0.0 mm
01:30 AM 84.9°F29.4°C 74.9°F23.8°C 72% 4.6 mph SE7.4 kmh SE 6.9 mph11.1 kmh 29.74 in1007.1 mb - 0.00 in0.0 mm 0.00 in0.0 mm
01:25 AM 85.0°F29.4°C 74.5°F23.6°C 71% 4.6 mph SSE7.4 kmh SSE 6.9 mph11.1 kmh 29.74 in1007.1 mb - 0.00 in0.0 mm 0.00 in0.0 mm
01:20 AM 85.1°F29.5°C 74.6°F23.7°C 71% 1.2 mph SSE1.9 kmh SSE 3.5 mph5.6 kmh 29.74 in1007.1 mb - 0.00 in0.0 mm 0.00 in0.0 mm
01:15 AM 85.0°F29.4°C 74.5°F23.6°C 71% 3.5 mph SE5.6 kmh SE 6.9 mph11.1 kmh 29.74 in1007.1 mb - 0.00 in0.0 mm 0.00 in0.0 mm
01:10 AM 84.9°F29.4°C 74.5°F23.6°C 71% 1.2 mph SE1.9 kmh SE 3.5 mph5.6 kmh 29.74 in1007.1 mb - 0.00 in0.0 mm 0.00 in0.0 mm
01:00 AM 85.2°F29.6°C 74.3°F23.5°C 70% 2.3 mph SE3.7 kmh SE 3.5 mph5.6 kmh 29.74 in1007.1 mb - 0.00 in0.0 mm 0.00 in0.0 mm
12:55 AM 85.4°F29.7°C 74.5°F23.6°C 70% 3.5 mph ESE5.6 kmh ESE 3.5 mph5.6 kmh 29.74 in1007.1 mb - 0.00 in0.0 mm 0.00 in0.0 mm
12:50 AM 85.6°F29.8°C 74.7°F23.7°C 70% 4.6 mph SE7.4 kmh SE 4.6 mph7.4 kmh 29.74 in1007.1 mb - 0.00 in0.0 mm 0.00 in0.0 mm
12:45 AM 85.7°F29.8°C 74.4°F23.6°C 69% 3.5 mph ESE5.6 kmh ESE 4.6 mph7.4 kmh 29.74 in1007.1 mb - 0.00 in0.0 mm 0.00 in0.0 mm
12:40 AM 85.9°F29.9°C 74.5°F23.6°C 69% 3.5 mph SE5.6 kmh SE 8.1 mph13.0 kmh 29.74 in1007.1 mb - 0.00 in0.0 mm 0.00 in0.0 mm
12:35 AM 85.9°F29.9°C 74.5°F23.6°C 69% 3.5 mph ESE5.6 kmh ESE 10.4 mph16.7 kmh 29.74 in1007.1 mb - 0.00 in0.0 mm 0.00 in0.0 mm
12:30 AM 86.0°F30.0°C 74.6°F23.7°C 69% 4.6 mph ESE7.4 kmh ESE 6.9 mph11.1 kmh 29.75 in1007.5 mb - 0.00 in0.0 mm 0.00 in0.0 mm
12:25 AM 86.1°F30.1°C 74.7°F23.7°C 69% 5.8 mph SE9.3 kmh SE 12.7 mph20.4 kmh 29.75 in1007.5 mb - 0.00 in0.0 mm 0.00 in0.0 mm
12:20 AM 86.3°F30.2°C 74.5°F23.6°C 68% 3.5 mph E5.6 kmh E 4.6 mph7.4 kmh 29.75 in1007.5 mb - 0.00 in0.0 mm 0.00 in0.0 mm
12:15 AM 86.3°F30.2°C 74.5°F23.6°C 68% 4.6 mph ESE7.4 kmh ESE 6.9 mph11.1 kmh 29.75 in1007.5 mb - 0.00 in0.0 mm 0.00 in0.0 mm
12:10 AM 86.2°F30.1°C 74.4°F23.6°C 68% 2.3 mph ESE3.7 kmh ESE 8.1 mph13.0 kmh 29.75 in1007.5 mb - 0.00 in0.0 mm 0.00 in0.0 mm
12:00 AM 85.9°F29.9°C 74.1°F23.4°C 68% 2.3 mph SE3.7 kmh SE 3.5 mph5.6 kmh 29.75 in1007.5 mb - 0.00 in0.0 mm 0.00 in0.0 mm